Impacts TAF Board INFO
FOR SITUATIONAL AWARENESS. NOT TO BE USED FOR FLIGHT PLANNING PURPOSES.
IDs:

KPHX - Phoenix/Sky Harbor, AZ, US

Issued at 0238 UTC 22 Nov 2017
Updated at 0325 UTC 22 Nov 2017
Potential Impact None Slight Moderate High
Time0251Z 22/04Z 22/05Z 22/06Z 22/07Z 22/08Z 22/09Z 22/10Z 22/11Z 22/12Z 22/13Z 22/14Z 22/15Z 22/16Z>>
Type OBS PRVL PRVL PRVL PRVL PRVL PRVL PRVL PRVL PRVL PRVL PRVL PRVL PRVL
  [TEMP]  
VIS 10 >6 >6 >6 >6 >6 >6 >6 >6 >6 >6 >6 >6 >6
CIG 250 250 250 250 250 250 250 250 250 250 250 250 250 250
  [250]  
Cover BKN BKN BKN BKN BKN BKN BKN BKN BKN BKN BKN BKN BKN BKN
  [BKN]  
FltCat VFR VFR VFR VFR VFR VFR VFR VFR VFR VFR VFR VFR VFR VFR
  [VFR]  
WX -- -- -- -- -- -- -- -- -- -- -- -- -- --
  [--]  
WDir 330 310 310 100 100 100 100 100 100 100 100 100 100 100
[90]
WSpd 4 4 4 7 7 7 7 7 7 7 7 7 7 7
  [12]  
WGst -- -- -- -- -- -- -- -- -- -- -- -- -- --
  [20]  

Raw TAF
KPHX 220238Z 2203/2306 31004KT P6SM BKN250
  FM220600 10007KT P6SM BKN250
  TEMPO 2216/2220 09012G20KT


Raw METAR
KPHX 220251Z 33004KT 10SM BKN250 23/M01 A3006 RMK AO2 SLP171 T02281011 53010
KPHX 220151Z 26003KT 10SM BKN250 BKN290 22/M02 A3005 RMK AO2 SLP166 T02221017
KPHX 220051Z 23003KT 10SM BKN250 BKN290 23/M02 A3004 RMK AO2 SLP161 T02281017

METAR Board
Radar Display
Forecast Discussion

FOR SITUATIONAL AWARENESS. NOT TO BE USED FOR FLIGHT PLANNING PURPOSES.